Time;durP1;ratioP1;P1;durP2;ratioP2;P2;SDS_P1;SDS_P2;PMS_P1;PMS_P2;Temp;Humidity;BMP_temperature;BMP_pressure;BME280_temperature;BME280_humidity;BME280_pressure;Samples;Min_cycle;Max_cycle;Signal;HPM_P1;HPM_P2
2023/12/23 00:02:17;;;;;;;;;0.00;0.00;;;;;10.22;84.96;101745.34;5028544;28;45700;-51
2023/12/23 00:04:43;;;;;;;;;0.00;0.00;;;;;10.26;85.21;101759.41;5041132;28;45454;-51
2023/12/23 00:07:12;;;;;;;;;0.00;0.00;;;;;10.29;84.78;101758.44;5040189;28;45736;-52
2023/12/23 00:09:37;;;;;;;;;0.00;0.00;;;;;10.31;84.98;101751.28;5026215;28;46236;-48
2023/12/23 00:12:03;;;;;;;;;0.67;0.00;;;;;10.34;85.26;101764.44;5044044;28;45284;-51
2023/12/23 00:14:29;;;;;;;;;0.00;0.00;;;;;10.35;85.01;101764.47;5024240;28;45442;-49
2023/12/23 00:16:54;;;;;;;;;0.00;0.00;;;;;10.34;85.13;101757.38;5038547;28;69170;-50
2023/12/23 00:19:19;;;;;;;;;0.33;0.00;;;;;10.35;85.42;101752.91;5021769;28;60012;-51
2023/12/23 00:21:44;;;;;;;;;0.00;0.00;;;;;10.34;85.16;101767.09;5039426;28;51339;-51
2023/12/23 00:24:10;;;;;;;;;1.00;0.33;;;;;10.35;85.40;101763.53;5039765;28;45312;-48
2023/12/23 00:26:35;;;;;;;;;0.00;0.00;;;;;10.35;85.52;101767.13;5005962;28;65592;-52
2023/12/23 00:29:00;;;;;;;;;0.00;0.00;;;;;10.38;85.72;101768.81;5039587;28;70445;-52
2023/12/23 00:31:26;;;;;;;;;0.00;0.00;;;;;10.38;85.50;101767.00;5039951;28;67382;-50
2023/12/23 00:33:51;;;;;;;;;0.00;0.00;;;;;10.36;85.47;101768.84;5046936;28;45215;-52
2023/12/23 00:36:16;;;;;;;;;0.00;0.00;;;;;10.38;85.36;101764.34;5042604;28;45392;-52
2023/12/23 00:38:42;;;;;;;;;1.00;1.00;;;;;10.39;85.45;101762.53;5043258;28;45315;-49
2023/12/23 00:41:07;;;;;;;;;1.33;0.00;;;;;10.39;85.86;101760.78;5004790;28;45412;-51
2023/12/23 00:43:33;;;;;;;;;0.00;0.00;;;;;10.39;85.86;101768.75;5039786;28;45486;-53
2023/12/23 00:45:58;;;;;;;;;0.00;0.00;;;;;10.40;85.73;101778.47;5020683;28;69561;-53
2023/12/23 00:48:23;;;;;;;;;0.00;0.00;;;;;10.42;85.73;101765.13;5021120;28;75980;-51
2023/12/23 00:50:49;;;;;;;;;0.00;0.00;;;;;10.41;85.64;101761.56;5046950;28;70201;-55
2023/12/23 00:53:14;;;;;;;;;0.00;0.00;;;;;10.41;85.56;101766.88;5039768;28;45610;-50
2023/12/23 00:55:39;;;;;;;;;0.00;0.00;;;;;10.42;85.78;101775.75;5021933;28;45835;-51
2023/12/23 00:58:05;;;;;;;;;0.00;0.00;;;;;10.42;85.81;101767.78;5037987;28;69925;-51
2023/12/23 01:00:30;;;;;;;;;1.00;1.00;;;;;10.41;85.34;101763.38;5039719;28;45450;-50
2023/12/23 01:02:55;;;;;;;;;1.00;1.00;;;;;10.40;85.42;101766.94;5004338;28;45379;-50
2023/12/23 01:05:21;;;;;;;;;3.00;1.00;;;;;10.39;85.76;101750.13;5039656;28;45340;-50
2023/12/23 01:07:46;;;;;;;;;2.00;1.00;;;;;10.39;85.57;101747.47;5039091;28;45340;-51
2023/12/23 01:10:11;;;;;;;;;1.67;0.67;;;;;10.38;85.25;101745.72;5039169;28;45480;-53
2023/12/23 01:12:37;;;;;;;;;1.00;1.00;;;;;10.34;85.11;101746.72;5037945;28;47309;-53
2023/12/23 01:15:02;;;;;;;;;1.00;0.00;;;;;10.33;85.13;101738.81;5038887;28;45246;-50
2023/12/23 01:17:28;;;;;;;;;0.33;0.00;;;;;10.31;85.08;101744.19;5039086;28;46531;-52
2023/12/23 01:19:53;;;;;;;;;0.00;0.00;;;;;10.30;85.09;101741.53;5038224;28;70938;-50
2023/12/23 01:22:18;;;;;;;;;1.33;1.33;;;;;10.30;85.29;101742.44;5039464;28;45298;-51
2023/12/23 01:24:44;;;;;;;;;1.00;1.00;;;;;10.33;85.14;101757.41;5020586;28;56675;-53
2023/12/23 01:27:09;;;;;;;;;0.00;0.00;;;;;10.32;85.24;101761.00;5039334;28;72065;-53
2023/12/23 01:29:34;;;;;;;;;0.00;0.00;;;;;10.32;nan;101756.53;5040957;28;64456;-49
2023/12/23 01:31:59;;;;;;;;;0.00;0.00;;;;;10.30;85.17;101757.50;5040979;28;69570;-52
2023/12/23 01:34:25;;;;;;;;;2.67;1.00;;;;;10.29;85.32;101753.13;5034370;28;52829;-57
2023/12/23 01:36:50;;;;;;;;;0.00;0.00;;;;;10.29;85.45;101755.78;5058156;28;75818;-52
2023/12/23 01:39:15;;;;;;;;;2.00;0.00;;;;;10.31;85.09;101759.25;5058917;28;45355;-51
2023/12/23 01:41:41;;;;;;;;;0.67;0.00;;;;;10.30;85.19;101753.06;5057954;28;45246;-50
2023/12/23 01:44:06;;;;;;;;;0.00;0.00;;;;;10.32;85.05;101764.50;5057075;28;45597;-50
2023/12/23 01:46:32;;;;;;;;;0.33;0.33;;;;;10.33;85.37;101755.63;5058800;28;46449;-50
2023/12/23 01:48:58;;;;;;;;;2.67;0.00;;;;;10.33;85.26;101749.44;5087618;27;55275;-51
2023/12/23 01:51:24;;;;;;;;;0.33;0.00;;;;;10.34;85.49;101740.50;5059696;28;45797;-50
2023/12/23 01:53:50;;;;;;;;;0.00;0.00;;;;;10.33;84.70;101731.69;5056038;28;51242;-50
2023/12/23 01:56:15;;;;;;;;;0.00;0.00;;;;;10.35;84.92;101744.91;5057792;28;45394;-51
2023/12/23 01:58:41;;;;;;;;;0.00;0.00;;;;;10.37;85.01;101741.31;5057226;28;45659;-49
2023/12/23 02:01:06;;;;;;;;;0.00;0.00;;;;;10.39;84.79;101734.16;5058231;28;62773;-50
2023/12/23 02:03:32;;;;;;;;;0.33;0.00;;;;;10.42;84.88;101727.88;5058806;28;45256;-52
2023/12/23 02:05:58;;;;;;;;;1.00;0.00;;;;;10.40;84.37;101722.63;5057018;28;46138;-50
2023/12/23 02:08:23;;;;;;;;;1.00;0.00;;;;;10.38;84.34;101716.47;5058603;28;45212;-51
2023/12/23 02:11:00;;;;;;;;;1.00;0.00;;;;;10.39;84.14;101714.66;5056345;28;64500;-48
2023/12/23 02:13:26;;;;;;;;;1.00;0.00;;;;;10.38;83.94;101718.28;5041824;28;45539;-52
2023/12/23 02:15:52;;;;;;;;;0.00;0.00;;;;;10.41;83.84;101708.38;5057032;28;46282;-52
2023/12/23 02:18:19;;;;;;;;;0.00;0.00;;;;;10.40;83.24;101711.97;5058348;28;45472;-51
2023/12/23 02:20:48;;;;;;;;;0.00;0.00;;;;;10.41;83.29;101710.19;5057683;28;45429;-50
2023/12/23 02:23:14;;;;;;;;;0.00;0.00;;;;;10.41;83.04;101705.72;5058696;28;45502;-49
2023/12/23 02:25:39;;;;;;;;;0.00;0.00;;;;;10.44;82.71;101707.41;5057020;28;45478;-50
2023/12/23 02:28:08;;;;;;;;;0.00;0.00;;;;;10.45;82.80;101719.78;5057920;28;45475;-51
2023/12/23 02:30:34;;;;;;;;;1.00;0.00;;;;;10.45;82.50;101719.78;5057505;28;45340;-51
2023/12/23 02:32:59;;;;;;;;;0.00;0.00;;;;;10.47;82.25;101725.03;5087139;27;52340;-51
2023/12/23 02:35:24;;;;;;;;;0.00;0.00;;;;;10.49;82.26;101717.88;5056678;28;62936;-51
2023/12/23 02:37:50;;;;;;;;;0.00;0.00;;;;;10.50;82.00;101722.28;5072654;28;45449;-49
2023/12/23 02:40:15;;;;;;;;;0.00;0.00;;;;;10.50;81.96;101712.50;5058081;28;56753;-51
2023/12/23 02:42:40;;;;;;;;;0.00;0.00;;;;;10.52;81.88;101709.78;5063438;28;45656;-49
2023/12/23 02:45:06;;;;;;;;;0.00;0.00;;;;;10.50;81.76;101699.22;5054601;28;46024;-50
2023/12/23 02:47:32;;;;;;;;;0.00;0.00;;;;;10.48;81.35;101702.84;5055022;28;45669;-49
2023/12/23 02:49:57;;;;;;;;;0.00;0.00;;;;;10.48;80.95;101706.41;5054341;28;68748;-50
2023/12/23 02:52:22;;;;;;;;;0.00;0.00;;;;;10.49;81.20;101715.22;5057210;28;45648;-49
2023/12/23 02:54:48;;;;;;;;;0.00;0.00;;;;;10.49;81.23;101715.22;5055410;28;74617;-51
2023/12/23 02:57:13;;;;;;;;;0.00;0.00;;;;;10.47;80.95;101712.63;5062964;28;45366;-51
2023/12/23 02:59:38;;;;;;;;;0.00;0.00;;;;;10.46;81.06;101716.19;5057323;28;69316;-49
2023/12/23 03:02:04;;;;;;;;;0.67;0.00;;;;;10.46;81.28;101726.84;5057081;28;51204;-50
2023/12/23 03:04:29;;;;;;;;;0.00;0.00;;;;;10.47;81.15;101725.94;5052716;28;76062;-50
2023/12/23 03:06:55;;;;;;;;;0.00;0.00;;;;;10.46;80.83;101726.00;5061037;28;45429;-50
2023/12/23 03:09:20;;;;;;;;;0.00;0.00;;;;;10.46;80.91;101729.50;5061203;28;50812;-53
2023/12/23 03:11:45;;;;;;;;;0.00;0.00;;;;;10.47;80.84;101736.56;5060681;28;67398;-51
2023/12/23 03:14:11;;;;;;;;;0.00;0.00;;;;;10.48;80.76;101730.34;5059513;28;47200;-50
2023/12/23 03:16:36;;;;;;;;;0.00;0.00;;;;;10.49;80.39;101724.06;5061624;28;51530;-49
2023/12/23 03:19:02;;;;;;;;;0.00;0.00;;;;;10.49;80.62;101728.53;5060438;28;50140;-51
2023/12/23 03:21:28;;;;;;;;;0.00;0.00;;;;;10.50;79.95;101733.78;5043537;28;45532;-50
2023/12/23 03:23:53;;;;;;;;;0.00;0.00;;;;;10.51;80.30;101745.31;5059171;28;46247;-52
2023/12/23 03:26:19;;;;;;;;;0.00;0.00;;;;;10.52;80.13;101736.38;5064529;28;45557;-53
2023/12/23 03:28:44;;;;;;;;;0.00;0.00;;;;;10.55;80.30;101729.19;5061124;28;45753;-51
2023/12/23 03:31:09;;;;;;;;;0.00;0.00;;;;;10.55;79.86;101729.19;5092620;27;67877;-51
2023/12/23 03:33:35;;;;;;;;;0.00;0.00;;;;;10.56;80.13;101719.44;5057926;28;72518;-49
2023/12/23 03:36:00;;;;;;;;;0.00;0.00;;;;;10.56;80.21;101716.75;5043648;28;45424;-53
2023/12/23 03:38:26;;;;;;;;;0.00;0.00;;;;;10.55;80.00;101705.25;5040022;28;69119;-52
2023/12/23 03:40:51;;;;;;;;;0.00;0.00;;;;;10.55;79.75;101693.75;5045192;28;45301;-50
2023/12/23 03:43:17;;;;;;;;;0.00;0.00;;;;;10.54;80.02;101674.22;5047796;28;46468;-51
2023/12/23 03:45:42;;;;;;;;;0.00;0.00;;;;;10.50;79.33;101671.75;5005607;28;71170;-51
2023/12/23 03:48:07;;;;;;;;;0.00;0.00;;;;;10.49;79.71;101667.34;5030170;28;45417;-51
2023/12/23 03:50:33;;;;;;;;;0.00;0.00;;;;;10.45;79.71;101671.03;5041773;28;45399;-52
2023/12/23 03:52:58;;;;;;;;;0.00;0.00;;;;;10.41;79.85;101664.97;5039124;28;74713;-50
2023/12/23 03:55:29;;;;;;;;;0.00;0.00;;;;;10.39;79.88;101678.31;5014984;28;45277;-53
2023/12/23 03:57:55;;;;;;;;;0.00;0.00;;;;;10.39;80.29;101683.63;5033533;28;45289;-50
2023/12/23 04:00:20;;;;;;;;;0.00;0.00;;;;;10.41;80.33;101694.22;5029273;28;45669;-50
2023/12/23 04:02:45;;;;;;;;;0.00;0.00;;;;;10.39;80.02;101680.97;5040076;28;74755;-52
2023/12/23 04:05:10;;;;;;;;;0.00;0.00;;;;;10.38;80.12;101681.91;5034901;28;69227;-54
2023/12/23 04:07:36;;;;;;;;;0.00;0.00;;;;;10.37;80.34;101685.47;5022659;28;58086;-52
2023/12/23 04:10:01;;;;;;;;;0.00;0.00;;;;;10.38;80.15;101673.91;5039590;28;45574;-51
2023/12/23 04:12:27;;;;;;;;;0.00;0.00;;;;;10.39;80.14;101666.78;5021938;28;45355;-51
2023/12/23 04:14:52;;;;;;;;;0.00;0.00;;;;;10.40;80.21;101663.22;5041359;28;71140;-49
2023/12/23 04:17:17;;;;;;;;;0.00;0.00;;;;;10.39;80.16;101654.38;5041020;28;45351;-49
2023/12/23 04:19:43;;;;;;;;;0.00;0.00;;;;;10.36;80.16;101651.81;5039254;28;65177;-50
2023/12/23 04:22:08;;;;;;;;;0.00;0.00;;;;;10.34;80.28;101643.00;5041891;28;65681;-51
2023/12/23 04:24:33;;;;;;;;;1.00;0.00;;;;;10.35;80.38;101644.78;5045023;28;59409;-49
2023/12/23 04:26:59;;;;;;;;;0.00;0.00;;;;;10.34;80.33;101652.75;5027850;28;46008;-51
2023/12/23 04:29:24;;;;;;;;;0.00;0.00;;;;;10.31;80.66;101640.47;5038798;28;69095;-50
2023/12/23 04:31:49;;;;;;;;;0.00;0.00;;;;;10.30;80.54;101640.50;5040103;28;45338;-50
2023/12/23 04:34:15;;;;;;;;;0.00;0.00;;;;;10.27;80.91;101653.00;5046325;28;69883;-50
2023/12/23 04:36:40;;;;;;;;;0.67;0.00;;;;;10.26;81.16;101648.59;5059461;28;60137;-52
2023/12/23 04:39:06;;;;;;;;;0.00;0.00;;;;;10.27;81.40;101660.09;5059200;28;45565;-50
2023/12/23 04:41:32;;;;;;;;;0.00;0.00;;;;;10.28;81.37;101653.84;5060944;28;46094;-50
2023/12/23 04:43:57;;;;;;;;;0.00;0.00;;;;;10.29;81.27;101646.75;5059761;28;45241;-49
2023/12/23 04:46:22;;;;;;;;;0.00;0.00;;;;;10.29;81.23;101638.78;5060615;28;45725;-50
2023/12/23 04:48:48;;;;;;;;;0.00;0.00;;;;;10.26;81.35;101635.31;5059291;28;53178;-49
2023/12/23 04:51:13;;;;;;;;;0.00;0.00;;;;;10.27;81.24;101644.13;5069766;28;45878;-51
2023/12/23 04:53:38;;;;;;;;;0.00;0.00;;;;;10.28;81.58;101648.53;5058051;28;73640;-50
2023/12/23 04:56:04;;;;;;;;;0.00;0.00;;;;;10.28;82.08;101656.50;5067171;27;68340;-50
2023/12/23 04:58:30;;;;;;;;;0.00;0.00;;;;;10.29;81.73;101658.25;5062566;27;45416;-50
2023/12/23 05:00:55;;;;;;;;;0.00;0.00;;;;;10.29;81.77;101657.41;5058766;28;64185;-50
2023/12/23 05:03:20;;;;;;;;;0.00;0.00;;;;;10.29;82.12;101655.59;5059541;28;72477;-50
2023/12/23 05:05:45;;;;;;;;;0.33;0.00;;;;;10.31;82.09;101653.75;5063435;28;71420;-56
2023/12/23 05:08:16;;;;;;;;;0.00;0.00;;;;;10.32;82.11;101654.63;5055796;28;63454;-56
2023/12/23 05:10:41;;;;;;;;;0.00;0.00;;;;;10.32;82.03;101651.97;5057741;28;45548;-56
2023/12/23 05:13:07;;;;;;;;;0.00;0.00;;;;;10.32;82.05;101652.81;5058413;28;45342;-56
2023/12/23 05:15:32;;;;;;;;;0.00;0.00;;;;;10.32;81.88;101660.78;5057013;28;45316;-56
2023/12/23 05:17:58;;;;;;;;;0.00;0.00;;;;;10.32;81.85;101651.97;5056718;28;65248;-57
2023/12/23 05:20:25;;;;;;;;;0.00;0.00;;;;;10.33;81.68;101656.38;5057303;28;45576;-57
2023/12/23 05:22:50;;;;;;;;;0.00;0.00;;;;;10.35;81.79;101657.16;5056654;28;45465;-52
2023/12/23 05:25:15;;;;;;;;;0.00;0.00;;;;;10.35;81.83;101655.41;5067190;28;45638;-56
2023/12/23 05:27:41;;;;;;;;;0.00;0.00;;;;;10.36;81.55;101645.63;5056195;28;45965;-56
2023/12/23 05:30:07;;;;;;;;;0.00;0.00;;;;;10.35;81.36;101649.19;5056839;28;67099;-56
2023/12/23 05:32:32;;;;;;;;;1.00;0.00;;;;;10.35;81.33;101658.09;5059041;28;45383;-61
2023/12/23 05:34:57;;;;;;;;;0.00;0.00;;;;;10.35;81.33;101647.44;5056835;28;58499;-57
2023/12/23 05:37:22;;;;;;;;;0.00;0.00;;;;;10.35;80.92;101644.78;5054869;28;45367;-58
2023/12/23 05:39:48;;;;;;;;;0.67;0.00;;;;;10.35;81.03;101644.78;5053530;28;63392;-56
2023/12/23 05:42:14;;;;;;;;;0.00;0.00;;;;;10.35;80.37;101646.53;5055686;28;45268;-57
2023/12/23 05:44:39;;;;;;;;;1.00;0.00;;;;;10.36;80.46;101646.50;5058320;28;45676;-56
2023/12/23 05:47:05;;;;;;;;;0.33;0.00;;;;;10.38;80.06;101647.31;5057338;28;69604;-56
2023/12/23 05:49:30;;;;;;;;;0.00;0.00;;;;;10.39;79.76;101641.09;5058008;28;74449;-57
2023/12/23 05:51:55;;;;;;;;;0.00;0.00;;;;;10.41;79.28;101633.91;5057436;27;47100;-56
2023/12/23 05:54:21;;;;;;;;;0.00;0.00;;;;;10.42;79.31;101650.75;5055351;28;45478;-57
2023/12/23 05:56:46;;;;;;;;;1.00;0.00;;;;;10.46;79.40;101656.84;5057090;28;45453;-58
2023/12/23 05:59:11;;;;;;;;;1.33;0.00;;;;;10.47;79.54;101645.25;5057085;28;64016;-57
2023/12/23 06:01:37;;;;;;;;;0.00;0.00;;;;;10.47;79.13;101653.22;5057620;28;71342;-57
2023/12/23 06:04:02;;;;;;;;;1.00;0.00;;;;;10.47;78.92;101645.25;5058414;28;45541;-57
2023/12/23 06:06:27;;;;;;;;;0.00;0.00;;;;;10.47;78.75;101647.91;5058004;28;67190;-56
2023/12/23 06:08:53;;;;;;;;;0.00;0.00;;;;;10.47;78.61;101651.44;5072826;28;73428;-56
2023/12/23 06:11:18;;;;;;;;;0.00;0.00;;;;;10.46;78.02;101648.84;5057736;28;72238;-56
2023/12/23 06:13:43;;;;;;;;;0.00;0.00;;;;;10.46;78.23;101659.50;5057427;28;45731;-56
2023/12/23 06:16:09;;;;;;;;;0.00;0.00;;;;;10.44;78.28;101651.53;5058357;28;45820;-56
2023/12/23 06:18:34;;;;;;;;;3.00;0.00;;;;;10.47;78.23;101653.22;5058548;28;45463;-56
2023/12/23 06:20:59;;;;;;;;;0.00;0.00;;;;;10.45;78.07;101647.97;5057956;28;53941;-56
2023/12/23 06:23:25;;;;;;;;;0.00;0.00;;;;;10.48;77.99;101660.28;5058786;28;45403;-56
2023/12/23 06:25:50;;;;;;;;;0.00;0.00;;;;;10.47;77.13;101661.19;5057385;28;62966;-56
2023/12/23 06:28:16;;;;;;;;;0.67;0.00;;;;;10.48;77.54;101670.94;5057895;28;45342;-57
2023/12/23 06:30:42;;;;;;;;;0.67;0.00;;;;;10.47;77.29;101666.53;5058379;28;51055;-56
2023/12/23 06:33:07;;;;;;;;;0.00;0.00;;;;;10.48;77.34;101657.63;5057933;28;45464;-56
2023/12/23 06:35:32;;;;;;;;;0.00;0.00;;;;;10.47;77.33;101662.09;5058318;28;45442;-56
2023/12/23 06:37:58;;;;;;;;;0.00;0.00;;;;;10.47;77.20;101658.53;5090209;27;46548;-55
2023/12/23 06:40:23;;;;;;;;;0.00;0.00;;;;;10.46;76.83;101665.66;5059854;28;66094;-55
2023/12/23 06:42:48;;;;;;;;;0.00;0.00;;;;;10.47;76.99;101650.56;5058712;28;69621;-56
2023/12/23 06:45:14;;;;;;;;;0.00;0.00;;;;;10.48;77.29;101657.63;5060939;28;45561;-56
2023/12/23 06:47:40;;;;;;;;;0.00;0.00;;;;;10.49;76.94;101659.38;5061742;28;45520;-55
2023/12/23 06:50:06;;;;;;;;;0.00;0.00;;;;;10.49;76.89;101659.38;5060663;28;67166;-56
2023/12/23 06:52:31;;;;;;;;;0.00;0.00;;;;;10.50;76.94;101648.66;5060592;28;45366;-56
2023/12/23 06:54:56;;;;;;;;;0.00;0.00;;;;;10.51;76.74;101661.06;5059954;28;45641;-56
2023/12/23 06:57:21;;;;;;;;;0.00;0.00;;;;;10.52;77.03;101660.13;5061502;28;45331;-56
2023/12/23 06:59:47;;;;;;;;;1.00;0.00;;;;;10.53;76.69;101671.63;5060516;28;70719;-56
2023/12/23 07:02:13;;;;;;;;;0.00;0.00;;;;;10.53;76.80;101674.28;5060755;28;57451;-55
2023/12/23 07:04:39;;;;;;;;;0.33;0.00;;;;;10.53;76.66;101675.19;5061392;28;45600;-55
2023/12/23 07:07:04;;;;;;;;;0.00;0.00;;;;;10.54;76.51;101676.03;5053280;28;74193;-56
2023/12/23 07:09:29;;;;;;;;;0.00;0.00;;;;;10.53;76.70;101675.19;5060389;28;73108;-56
2023/12/23 07:11:54;;;;;;;;;0.00;0.00;;;;;10.56;76.77;101679.53;5060400;28;64876;-55
2023/12/23 07:14:20;;;;;;;;;0.33;0.00;;;;;10.57;76.65;101678.56;5061080;28;45247;-56
2023/12/23 07:16:46;;;;;;;;;0.00;0.00;;;;;10.59;76.39;101687.38;5060554;28;71179;-56
2023/12/23 07:19:13;;;;;;;;;0.00;0.00;;;;;10.57;76.35;101690.09;5060785;27;45387;-57
2023/12/23 07:21:38;;;;;;;;;0.00;0.00;;;;;10.59;76.75;101685.56;5061782;28;45355;-56
2023/12/23 07:24:04;;;;;;;;;0.00;0.00;;;;;10.58;76.55;101685.63;5059424;28;45665;-56
2023/12/23 07:26:30;;;;;;;;;0.00;0.00;;;;;10.56;76.32;101688.34;5099755;27;46617;-56
2023/12/23 07:28:55;;;;;;;;;1.00;0.00;;;;;10.57;76.38;101695.41;5060737;28;45327;-57
2023/12/23 07:31:21;;;;;;;;;0.33;0.33;;;;;10.57;76.72;101703.41;5061605;28;45224;-56
2023/12/23 07:33:46;;;;;;;;;0.00;0.00;;;;;10.59;76.53;101690.91;5058827;28;45315;-56
2023/12/23 07:36:11;;;;;;;;;0.00;0.00;;;;;10.59;76.27;101695.34;5040701;28;46313;-56
2023/12/23 07:38:37;;;;;;;;;0.00;0.00;;;;;10.58;76.39;101701.59;5040887;28;45336;-56
2023/12/23 07:41:02;;;;;;;;;0.00;0.00;;;;;10.61;76.27;101704.13;5040744;28;65907;-56
2023/12/23 07:43:27;;;;;;;;;0.00;0.00;;;;;10.63;76.58;101718.28;5023644;28;52405;-56
2023/12/23 07:45:53;;;;;;;;;0.00;0.00;;;;;10.65;76.58;101726.19;5040110;28;51395;-56
2023/12/23 07:48:18;;;;;;;;;1.00;0.00;;;;;10.62;76.30;101721.84;5040724;28;45898;-57
2023/12/23 07:50:43;;;;;;;;;1.00;0.00;;;;;10.61;76.21;101711.25;5021854;28;60791;-56
2023/12/23 07:53:09;;;;;;;;;1.00;1.00;;;;;10.62;76.54;101711.19;5038682;28;67650;-55
2023/12/23 07:55:34;;;;;;;;;0.00;0.00;;;;;10.64;76.36;101695.19;5040777;28;46143;-55
2023/12/23 07:58:00;;;;;;;;;2.00;0.67;;;;;10.65;76.48;101684.50;5041176;28;49287;-56
2023/12/23 08:00:25;;;;;;;;;0.00;0.00;;;;;10.67;76.35;101679.97;5040929;28;45363;-56
2023/12/23 08:02:51;;;;;;;;;0.00;0.00;;;;;10.70;76.13;101681.66;5023525;28;45250;-56
2023/12/23 08:05:16;;;;;;;;;1.33;0.00;;;;;10.69;76.46;101675.47;5037137;28;74776;-56
2023/12/23 08:07:42;;;;;;;;;0.00;0.00;;;;;10.71;76.63;101680.75;5035894;28;45619;-55
2023/12/23 08:10:08;;;;;;;;;0.00;0.00;;;;;10.72;76.44;101671.84;5040376;28;45230;-56
2023/12/23 08:12:34;;;;;;;;;0.00;0.00;;;;;10.72;76.44;101691.31;5039279;28;45444;-55
2023/12/23 08:14:59;;;;;;;;;0.00;0.00;;;;;10.74;76.64;101685.94;5023501;28;46245;-57
2023/12/23 08:17:25;;;;;;;;;0.00;0.00;;;;;10.76;76.27;101681.44;5038224;28;68360;-56
2023/12/23 08:19:50;;;;;;;;;0.33;0.33;;;;;10.76;76.52;101686.75;5039939;28;45480;-56
2023/12/23 08:22:15;;;;;;;;;0.00;0.00;;;;;10.78;76.58;101705.34;5040130;28;68180;-55
2023/12/23 08:24:41;;;;;;;;;0.00;0.00;;;;;10.75;76.17;101699.22;5021265;28;69968;-56
2023/12/23 08:27:06;;;;;;;;;2.00;0.00;;;;;10.76;76.56;101703.59;5025504;28;64781;-56
2023/12/23 08:29:32;;;;;;;;;0.67;0.67;;;;;10.78;76.46;101710.66;5039785;28;49152;-55
2023/12/23 08:31:58;;;;;;;;;0.67;0.67;;;;;10.76;76.49;101716.91;5021955;28;45352;-56
2023/12/23 08:34:23;;;;;;;;;0.33;0.00;;;;;10.76;76.70;101719.56;5040156;28;74706;-56
2023/12/23 08:36:49;;;;;;;;;0.00;0.00;;;;;10.78;76.62;101718.63;5040713;28;45480;-56
2023/12/23 08:39:14;;;;;;;;;1.33;1.33;;;;;10.79;76.69;101723.91;5040692;28;45497;-55
2023/12/23 08:41:40;;;;;;;;;4.00;1.00;;;;;10.76;76.82;101724.88;5043112;28;45543;-56
2023/12/23 08:44:05;;;;;;;;;0.00;0.00;;;;;10.79;76.71;101731.88;5043587;28;45406;-56
2023/12/23 08:46:31;;;;;;;;;0.67;0.67;;;;;10.80;76.88;101736.28;5025344;28;64267;-57
2023/12/23 08:48:56;;;;;;;;;0.00;0.00;;;;;10.81;76.68;101734.47;5042493;28;45580;-56
2023/12/23 08:51:22;;;;;;;;;2.00;0.00;;;;;10.83;76.86;101730.00;5044374;28;45466;-56
2023/12/23 08:53:47;;;;;;;;;2.33;0.00;;;;;10.85;76.90;101733.47;5040784;28;45280;-56
2023/12/23 08:56:12;;;;;;;;;3.33;1.33;;;;;10.87;76.88;101728.94;5037270;28;61006;-57
2023/12/23 08:58:38;;;;;;;;;2.00;1.00;;;;;10.88;76.99;101733.34;5048208;28;67234;-57
2023/12/23 09:01:04;;;;;;;;;1.33;0.00;;;;;10.88;77.24;101718.22;5071617;28;45966;-57
2023/12/23 09:03:30;;;;;;;;;2.00;2.00;;;;;10.90;77.48;101711.06;5039829;28;47175;-57
2023/12/23 09:05:57;;;;;;;;;2.33;1.00;;;;;10.92;77.69;101711.91;5067800;27;45434;-56
2023/12/23 09:08:22;;;;;;;;;0.00;0.00;;;;;10.98;77.48;101717.94;5039669;28;45804;-56
2023/12/23 09:10:48;;;;;;;;;0.67;0.67;;;;;11.04;77.72;101728.31;5037021;28;45504;-56
2023/12/23 09:13:14;;;;;;;;;1.00;1.00;;;;;11.07;77.51;101723.75;5037565;28;45315;-56
2023/12/23 09:15:39;;;;;;;;;1.00;1.00;;;;;11.14;77.16;101719.06;5039767;28;45435;-56
2023/12/23 09:18:05;;;;;;;;;1.67;1.67;;;;;11.17;77.18;101713.66;5038637;28;60620;-56
2023/12/23 09:20:31;;;;;;;;;2.00;0.67;;;;;11.24;76.97;101708.94;5039429;28;45494;-56
2023/12/23 09:22:56;;;;;;;;;0.33;0.00;;;;;11.26;76.84;101707.06;5040554;28;46034;-56
2023/12/23 09:25:22;;;;;;;;;1.67;1.67;;;;;11.32;76.76;101698.00;5039141;28;45300;-55
2023/12/23 09:27:47;;;;;;;;;1.00;0.67;;;;;11.37;76.63;101696.03;5037792;28;45368;-55
2023/12/23 09:30:13;;;;;;;;;0.33;0.33;;;;;11.42;76.64;101705.56;5037674;28;62741;-55
2023/12/23 09:32:38;;;;;;;;;0.00;0.00;;;;;11.47;76.41;101709.84;5039413;28;46250;-55
2023/12/23 09:35:04;;;;;;;;;2.00;1.00;;;;;11.49;76.26;101716.84;5047508;28;45221;-56
2023/12/23 09:37:29;;;;;;;;;5.67;5.67;;;;;11.50;76.30;101712.38;5041261;28;45490;-56
2023/12/23 09:39:54;;;;;;;;;1.00;1.00;;;;;11.51;76.16;101723.00;5055754;28;45356;-56
2023/12/23 09:42:22;;;;;;;;;0.00;0.00;;;;;11.50;76.52;101721.25;5057143;28;46194;-55
2023/12/23 09:44:47;;;;;;;;;2.00;0.33;;;;;11.52;76.47;101718.53;5058142;28;45375;-56
2023/12/23 09:47:13;;;;;;;;;3.00;1.00;;;;;11.51;76.57;101720.31;5050971;28;45366;-55
2023/12/23 09:49:38;;;;;;;;;1.00;1.00;;;;;11.50;76.45;101715.91;5040640;28;60511;-56
2023/12/23 09:52:04;;;;;;;;;0.00;0.00;;;;;11.48;76.73;101715.09;5056611;28;45520;-56
2023/12/23 09:54:37;;;;;;;;;2.00;1.00;;;;;11.50;76.80;101718.59;5058651;28;45438;-56
2023/12/23 09:57:03;;;;;;;;;0.00;0.00;;;;;11.51;76.51;101723.00;5058418;28;45217;-56
2023/12/23 09:59:28;;;;;;;;;2.67;2.00;;;;;11.52;77.07;101713.19;5053795;28;70361;-57
2023/12/23 10:01:54;;;;;;;;;1.00;1.00;;;;;11.53;76.91;101728.25;5057428;28;68801;-56
2023/12/23 10:04:20;;;;;;;;;1.33;1.33;;;;;11.53;77.24;101718.44;5058956;28;45375;-61
2023/12/23 10:06:46;;;;;;;;;0.67;0.33;;;;;11.60;77.08;101724.41;5050904;28;45536;-56
2023/12/23 10:09:11;;;;;;;;;1.00;1.00;;;;;11.65;77.11;101721.56;5059093;28;45378;-56
2023/12/23 10:11:37;;;;;;;;;1.00;1.00;;;;;11.67;76.94;101719.72;5036909;28;46860;-55
2023/12/23 10:14:02;;;;;;;;;2.67;1.00;;;;;11.67;76.71;101715.25;5056678;28;45717;-55
2023/12/23 10:16:27;;;;;;;;;0.00;0.00;;;;;11.70;76.83;101714.25;5061157;28;68229;-55
2023/12/23 10:18:53;;;;;;;;;2.00;1.00;;;;;11.73;76.79;101709.69;5060829;28;66755;-55
2023/12/23 10:21:19;;;;;;;;;2.33;1.33;;;;;11.78;76.65;101705.97;5061896;28;45299;-56
2023/12/23 10:23:45;;;;;;;;;4.00;2.33;;;;;11.85;76.78;101712.75;5050561;28;45233;-57
2023/12/23 10:26:12;;;;;;;;;1.00;1.00;;;;;11.88;76.53;101705.50;5066909;28;45500;-57
2023/12/23 10:28:38;;;;;;;;;1.67;0.00;;;;;11.88;76.55;101708.16;5094987;27;45281;-56
2023/12/23 10:31:06;;;;;;;;;1.00;1.00;;;;;11.90;76.66;101708.09;5059259;28;74473;-57
2023/12/23 10:33:36;;;;;;;;;0.00;0.00;;;;;11.91;76.74;101707.19;5060458;28;45602;-55
2023/12/23 10:36:04;;;;;;;;;3.00;3.00;;;;;11.96;76.63;101702.56;5060303;28;45271;-56
2023/12/23 10:38:30;;;;;;;;;1.33;1.00;;;;;11.99;76.67;101701.56;5061709;28;45441;-56
2023/12/23 10:41:17;;;;;;;;;0.67;0.67;;;;;12.02;76.59;101710.31;5059068;28;68658;-56
2023/12/23 10:43:43;;;;;;;;;2.33;1.00;;;;;12.04;76.59;101692.44;5061250;28;45394;-57
2023/12/23 10:46:10;;;;;;;;;4.67;4.00;;;;;12.07;76.43;101689.66;5093759;27;45476;-56
2023/12/23 10:48:36;;;;;;;;;2.00;2.00;;;;;12.07;76.56;101684.31;5037290;28;45451;-56
2023/12/23 10:51:02;;;;;;;;;2.00;1.00;;;;;12.11;76.79;101678.84;5055673;28;45598;-56
2023/12/23 10:53:29;;;;;;;;;2.00;2.00;;;;;12.15;76.76;101683.09;5057676;28;45509;-56
2023/12/23 10:55:54;;;;;;;;;1.00;1.00;;;;;12.15;76.50;101676.00;5060881;28;45391;-56
2023/12/23 10:58:20;;;;;;;;;1.00;1.00;;;;;12.19;76.15;101674.03;5060152;28;45781;-56
2023/12/23 11:00:46;;;;;;;;;0.00;0.00;;;;;12.22;76.29;101673.94;5058794;28;70031;-56
2023/12/23 11:03:12;;;;;;;;;1.67;0.67;;;;;12.21;76.63;101673.03;5060156;28;45405;-58
2023/12/23 11:05:39;;;;;;;;;4.33;2.00;;;;;12.21;76.44;101673.03;5061048;28;46375;-56
2023/12/23 11:08:13;;;;;;;;;0.00;0.00;;;;;12.20;76.44;101673.13;5059747;28;45442;-56
2023/12/23 11:10:39;;;;;;;;;2.33;1.33;;;;;12.19;76.64;101669.59;5057566;28;46754;-56
2023/12/23 11:13:07;;;;;;;;;0.00;0.00;;;;;12.22;76.62;101665.94;5041288;28;62349;-56
2023/12/23 11:15:32;;;;;;;;;0.00;0.00;;;;;12.16;76.37;101658.19;5058228;28;45249;-55
2023/12/23 11:17:58;;;;;;;;;4.00;4.00;;;;;12.13;76.92;101658.31;5058625;28;46046;-57